createdAt,value
2022-08-02T00:01:57.187Z,34.90
2022-08-02T00:04:36.896Z,34.80
2022-08-02T00:07:06.806Z,34.80
2022-08-02T00:09:38.711Z,34.90
2022-08-02T00:12:10.511Z,34.80
2022-08-02T00:14:43.437Z,34.80
2022-08-02T00:17:16.497Z,34.70
2022-08-02T00:19:47.065Z,34.70
2022-08-02T00:22:17.946Z,34.60
2022-08-02T00:24:48.532Z,34.40
2022-08-02T00:27:18.196Z,34.30
2022-08-02T00:29:52.394Z,34.30
2022-08-02T00:32:25.093Z,34.30
2022-08-02T00:34:55.465Z,34.30
2022-08-02T00:37:26.146Z,34.30
2022-08-02T00:40:03.491Z,34.20
2022-08-02T00:42:33.350Z,34.20
2022-08-02T00:45:02.797Z,34.30
2022-08-02T00:47:32.633Z,34.20
2022-08-02T00:50:02.850Z,34.10
2022-08-02T00:52:33.538Z,34.10
2022-08-02T00:55:05.185Z,34.00
2022-08-02T00:57:36.240Z,34.00
2022-08-02T01:00:08.272Z,33.90
2022-08-02T01:02:38.344Z,33.90
2022-08-02T01:05:11.192Z,33.90
2022-08-02T01:07:41.612Z,33.80
2022-08-02T01:10:13.310Z,33.70
2022-08-02T01:12:46.370Z,33.70
2022-08-02T01:15:18.223Z,33.70
2022-08-02T01:17:48.050Z,33.60
2022-08-02T01:20:45.745Z,33.50
2022-08-02T01:23:48.891Z,33.50
2022-08-02T01:26:45.525Z,33.50
2022-08-02T01:29:32.846Z,33.50
2022-08-02T01:32:20.822Z,33.50
2022-08-02T01:34:58.318Z,33.30
2022-08-02T01:37:40.401Z,33.20
2022-08-02T01:40:20.572Z,33.10
2022-08-02T01:42:54.006Z,33.20
2022-08-02T01:45:29.013Z,33.10
2022-08-02T01:48:07.901Z,33.10
2022-08-02T01:50:42.266Z,33.00
2022-08-02T01:53:15.942Z,32.90
2022-08-02T01:55:58.396Z,32.80
2022-08-02T01:58:33.338Z,32.80
2022-08-02T02:01:18.751Z,32.70
2022-08-02T02:03:53.021Z,32.80
2022-08-02T02:06:25.846Z,32.80
2022-08-02T02:09:00.682Z,32.80
2022-08-02T02:12:14.452Z,32.80
2022-08-02T02:14:25.270Z,32.80
2022-08-02T02:16:57.360Z,32.60
2022-08-02T02:19:30.306Z,32.50
2022-08-02T02:22:00.522Z,32.50
2022-08-02T02:24:37.282Z,32.50
2022-08-02T02:27:15.856Z,32.60
2022-08-02T02:30:10.635Z,32.60
2022-08-02T02:32:53.274Z,32.60
2022-08-02T02:35:29.615Z,32.40
2022-08-02T02:38:16.593Z,32.30
2022-08-02T02:41:20.132Z,32.50
2022-08-02T02:44:08.035Z,32.50
2022-08-02T02:46:39.438Z,32.50
2022-08-02T02:49:13.540Z,32.60
2022-08-02T02:51:46.368Z,32.60
2022-08-02T02:54:30.693Z,32.60
2022-08-02T02:57:08.709Z,32.60
2022-08-02T02:59:49.658Z,32.70
2022-08-02T03:02:26.114Z,32.60
2022-08-02T03:05:05.450Z,32.60
2022-08-02T03:07:38.285Z,32.60
2022-08-02T03:10:14.079Z,32.60
2022-08-02T03:12:45.282Z,32.50
2022-08-02T03:15:16.997Z,32.40
2022-08-02T03:17:48.277Z,32.30
2022-08-02T03:20:21.701Z,32.30
2022-08-02T03:22:52.562Z,32.20
2022-08-02T03:25:23.141Z,32.20
2022-08-02T03:27:52.602Z,32.10
2022-08-02T03:30:25.484Z,32.10
2022-08-02T03:32:56.539Z,32.00
2022-08-02T03:35:29.653Z,31.90
2022-08-02T03:38:05.152Z,31.80
2022-08-02T03:40:41.139Z,31.80
2022-08-02T03:43:12.918Z,31.70
2022-08-02T03:45:49.937Z,31.60
2022-08-02T03:48:31.904Z,31.70
2022-08-02T03:51:04.831Z,31.60
2022-08-02T03:53:39.182Z,31.50
2022-08-02T03:56:15.714Z,31.40
2022-08-02T03:58:49.342Z,31.30
2022-08-02T04:01:20.133Z,31.20
2022-08-02T04:03:50.730Z,31.20
2022-08-02T04:06:27.048Z,31.20
2022-08-02T04:08:58.802Z,31.20
2022-08-02T04:11:34.339Z,31.10
2022-08-02T04:14:11.060Z,31.00
2022-08-02T04:17:02.900Z,30.90
2022-08-02T04:19:38.705Z,30.90
2022-08-02T04:22:22.030Z,30.70
2022-08-02T04:24:56.118Z,30.70
2022-08-02T04:28:15.523Z,30.70
2022-08-02T04:30:23.957Z,30.70
2022-08-02T04:32:54.296Z,30.60
2022-08-02T04:35:26.960Z,30.60
2022-08-02T04:38:08.907Z,30.50
2022-08-02T04:40:44.212Z,30.50
2022-08-02T04:43:15.249Z,30.40
2022-08-02T04:45:46.282Z,30.40
2022-08-02T04:48:17.803Z,30.30
2022-08-02T04:50:49.146Z,30.30
2022-08-02T04:53:20.549Z,30.30
2022-08-02T04:55:53.027Z,30.30
2022-08-02T04:58:40.400Z,30.20
2022-08-02T05:01:10.503Z,30.20
2022-08-02T05:03:43.816Z,30.10
2022-08-02T05:06:22.741Z,30.10
2022-08-02T05:08:52.249Z,30.10
2022-08-02T05:11:34.223Z,30.00
2022-08-02T05:14:11.546Z,29.90
2022-08-02T05:16:43.508Z,29.90
2022-08-02T05:19:14.566Z,29.90
2022-08-02T05:21:46.613Z,29.90
2022-08-02T05:24:17.943Z,29.90
2022-08-02T05:26:48.763Z,29.80
2022-08-02T05:29:24.287Z,29.80
2022-08-02T05:31:55.485Z,29.80
2022-08-02T05:34:26.941Z,29.70
2022-08-02T05:36:56.894Z,29.60
2022-08-02T05:39:26.932Z,29.70
2022-08-02T05:42:02.720Z,29.60
2022-08-02T05:44:33.750Z,29.60
2022-08-02T05:47:04.416Z,29.50
2022-08-02T05:49:35.255Z,29.50
2022-08-02T05:52:13.871Z,29.40
2022-08-02T05:55:05.343Z,29.30
2022-08-02T05:57:54.940Z,29.40
2022-08-02T06:00:24.796Z,29.40
2022-08-02T06:03:38.255Z,29.30
2022-08-02T06:06:16.709Z,29.30
2022-08-02T06:08:55.446Z,29.20
2022-08-02T06:11:32.852Z,29.30
2022-08-02T06:14:07.227Z,29.20
2022-08-02T06:16:42.475Z,29.10
2022-08-02T06:19:15.967Z,29.10
2022-08-02T06:22:31.324Z,28.90
2022-08-02T06:24:38.874Z,29.00
2022-08-02T06:27:09.844Z,28.90
2022-08-02T06:29:42.658Z,28.90
2022-08-02T06:32:13.711Z,28.90
2022-08-02T06:34:44.704Z,28.60
2022-08-02T06:37:38.898Z,28.70
2022-08-02T06:40:39.498Z,28.70
2022-08-02T06:43:50.455Z,28.70
2022-08-02T06:46:57.466Z,28.60
2022-08-02T06:49:17.857Z,28.70
2022-08-02T06:51:48.393Z,28.60
2022-08-02T06:54:22.479Z,28.50
2022-08-02T06:56:53.337Z,28.50
2022-08-02T06:59:23.420Z,28.50
2022-08-02T07:01:55.868Z,28.50
2022-08-02T07:04:29.910Z,28.50
2022-08-02T07:07:00.266Z,28.30
2022-08-02T07:09:31.450Z,28.40
2022-08-02T07:12:14.539Z,28.30
2022-08-02T07:14:44.416Z,28.20
2022-08-02T07:17:15.706Z,28.20
2022-08-02T07:19:47.621Z,28.20
2022-08-02T07:22:24.954Z,28.10
2022-08-02T07:24:55.428Z,28.20
2022-08-02T07:27:25.913Z,28.20
2022-08-02T07:29:56.442Z,28.20
2022-08-02T07:32:31.820Z,28.10
2022-08-02T07:35:09.509Z,28.00
2022-08-02T07:37:55.403Z,27.90
2022-08-02T07:40:32.247Z,27.90
2022-08-02T07:43:04.239Z,27.90
2022-08-02T07:45:36.261Z,27.80
2022-08-02T07:48:29.203Z,27.90
2022-08-02T07:50:59.246Z,27.80
2022-08-02T07:53:51.688Z,27.80
2022-08-02T07:56:19.524Z,27.80
2022-08-02T07:58:50.956Z,27.70
2022-08-02T08:01:23.962Z,27.50
2022-08-02T08:03:54.296Z,27.60
2022-08-02T08:06:28.852Z,27.50
2022-08-02T08:09:00.921Z,27.60
2022-08-02T08:11:31.162Z,27.60
2022-08-02T08:14:00.877Z,27.60
2022-08-02T08:16:33.331Z,27.50
2022-08-02T08:19:06.136Z,27.50
2022-08-02T08:21:36.498Z,27.50
2022-08-02T08:24:09.146Z,27.40
2022-08-02T08:26:41.365Z,27.30
2022-08-02T08:29:13.579Z,27.30
2022-08-02T08:31:45.385Z,27.30
2022-08-02T08:34:19.352Z,27.30
2022-08-02T08:36:52.486Z,27.40
2022-08-02T08:39:22.524Z,27.40
2022-08-02T08:41:52.795Z,27.40
2022-08-02T08:44:24.693Z,27.40
2022-08-02T08:46:57.679Z,27.40
2022-08-02T08:49:35.415Z,27.10
2022-08-02T08:52:08.565Z,27.10
2022-08-02T08:54:43.973Z,27.20
2022-08-02T08:57:24.772Z,27.00
2022-08-02T08:59:54.079Z,27.10
2022-08-02T09:02:28.348Z,27.10
2022-08-02T09:05:01.700Z,27.10
2022-08-02T09:07:32.685Z,27.00
2022-08-02T09:10:34.686Z,27.10
2022-08-02T09:13:45.072Z,27.10
2022-08-02T09:16:39.810Z,27.10
2022-08-02T09:19:20.847Z,27.00
2022-08-02T09:22:16.078Z,26.90
2022-08-02T09:24:52.452Z,26.90
2022-08-02T09:27:25.244Z,26.80
2022-08-02T09:30:13.604Z,26.80
2022-08-02T09:32:49.208Z,26.80
2022-08-02T09:36:05.864Z,26.90
2022-08-02T09:38:36.575Z,26.80
2022-08-02T09:41:09.214Z,26.90
2022-08-02T09:44:03.748Z,26.70
2022-08-02T09:46:50.341Z,26.70
2022-08-02T09:49:23.889Z,26.70
2022-08-02T09:51:59.149Z,26.70
2022-08-02T09:54:30.922Z,26.60
2022-08-02T09:57:02.802Z,26.70
2022-08-02T09:59:33.403Z,26.60
2022-08-02T10:02:17.028Z,26.60
2022-08-02T10:04:52.642Z,26.50
2022-08-02T10:07:25.891Z,26.50
2022-08-02T10:09:58.366Z,26.30
2022-08-02T10:12:30.196Z,26.50
2022-08-02T10:15:02.483Z,26.50
2022-08-02T10:17:32.587Z,26.50
2022-08-02T10:20:04.916Z,26.40
2022-08-02T10:22:37.731Z,26.40
2022-08-02T10:25:09.095Z,26.40
2022-08-02T10:28:03.653Z,26.40
2022-08-02T10:30:32.491Z,26.30
2022-08-02T10:33:04.943Z,26.20
2022-08-02T10:35:39.965Z,26.30
2022-08-02T10:38:13.510Z,26.30
2022-08-02T10:40:48.754Z,26.30
2022-08-02T10:43:43.573Z,26.30
2022-08-02T10:46:27.430Z,26.20
2022-08-02T10:49:36.671Z,26.30
2022-08-02T10:52:07.308Z,26.20
2022-08-02T10:54:43.677Z,26.30
2022-08-02T10:57:24.558Z,26.20
2022-08-02T11:00:06.032Z,26.20
2022-08-02T11:02:53.197Z,26.20
2022-08-02T11:05:42.122Z,26.10
2022-08-02T11:08:25.770Z,26.10
2022-08-02T11:11:01.709Z,26.10
2022-08-02T11:13:32.551Z,26.00
2022-08-02T11:16:11.559Z,26.00
2022-08-02T11:18:54.389Z,26.00
2022-08-02T11:21:37.039Z,26.00
2022-08-02T11:24:28.978Z,25.80
2022-08-02T11:27:00.596Z,26.00
2022-08-02T11:29:44.198Z,26.00
2022-08-02T11:32:30.605Z,25.90
2022-08-02T11:35:05.961Z,25.90
2022-08-02T11:37:39.871Z,25.90
2022-08-02T11:40:19.507Z,25.90
2022-08-02T11:42:52.035Z,25.90
2022-08-02T11:45:30.066Z,25.90
2022-08-02T11:48:00.439Z,25.90
2022-08-02T11:50:32.742Z,25.80
2022-08-02T11:53:02.817Z,25.90
2022-08-02T11:55:36.451Z,25.80
2022-08-02T11:58:08.657Z,25.70
2022-08-02T12:00:39.927Z,25.70
2022-08-02T12:03:19.308Z,25.70
2022-08-02T12:06:04.892Z,25.80
2022-08-02T12:08:39.766Z,25.70
2022-08-02T12:11:09.797Z,25.70
2022-08-02T12:13:57.317Z,25.70
2022-08-02T12:16:53.235Z,25.60
2022-08-02T12:19:29.037Z,25.70
2022-08-02T12:22:42.194Z,25.70
2022-08-02T12:25:34.586Z,25.70
2022-08-02T12:28:23.672Z,25.70
2022-08-02T12:31:01.640Z,25.80
2022-08-02T12:33:46.549Z,25.80
2022-08-02T12:36:21.855Z,25.70
2022-08-02T12:39:02.331Z,25.80
2022-08-02T12:41:33.181Z,25.90
2022-08-02T12:44:03.917Z,25.90
2022-08-02T12:46:42.136Z,26.00
2022-08-02T12:49:19.391Z,26.00
2022-08-02T12:51:57.053Z,26.10
2022-08-02T12:54:40.548Z,26.10
2022-08-02T12:57:15.518Z,26.10
2022-08-02T12:59:52.669Z,26.10
2022-08-02T13:02:22.924Z,26.20
2022-08-02T13:04:55.585Z,26.30
2022-08-02T13:07:27.820Z,26.30
2022-08-02T13:10:02.671Z,26.40
2022-08-02T13:12:35.966Z,26.30
2022-08-02T13:15:12.411Z,26.40
2022-08-02T13:18:02.890Z,26.40
2022-08-02T13:20:34.099Z,26.50
2022-08-02T13:23:04.818Z,26.50
2022-08-02T13:25:36.306Z,26.60
2022-08-02T13:28:09.521Z,26.70
2022-08-02T13:30:39.241Z,26.70
2022-08-02T13:33:10.349Z,26.70
2022-08-02T13:35:40.482Z,26.70
2022-08-02T13:38:10.980Z,26.70
2022-08-02T13:41:05.087Z,26.80
2022-08-02T13:43:52.709Z,26.90
2022-08-02T13:46:28.537Z,27.00
2022-08-02T13:49:05.027Z,27.00
2022-08-02T13:51:37.181Z,27.00
2022-08-02T13:54:07.660Z,27.00
2022-08-02T13:56:38.719Z,27.00
2022-08-02T13:59:54.987Z,27.20
2022-08-02T14:02:04.142Z,27.30
2022-08-02T14:04:34.759Z,27.50
2022-08-02T14:07:08.614Z,27.50
2022-08-02T14:09:38.803Z,27.50
2022-08-02T14:12:14.372Z,27.60
2022-08-02T14:14:44.109Z,27.70
2022-08-02T14:17:14.484Z,27.60
2022-08-02T14:19:45.169Z,27.80
2022-08-02T14:22:16.775Z,27.90
2022-08-02T14:24:46.899Z,27.90
2022-08-02T14:27:39.534Z,27.90
2022-08-02T14:30:10.043Z,28.00
2022-08-02T14:32:41.901Z,28.10
2022-08-02T14:35:12.832Z,28.20
2022-08-02T14:37:44.212Z,28.30
2022-08-02T14:40:31.194Z,28.30
2022-08-02T14:43:03.450Z,28.40
2022-08-02T14:45:40.072Z,28.40
2022-08-02T14:48:13.375Z,28.40
2022-08-02T14:50:44.231Z,28.50
2022-08-02T14:53:15.145Z,28.50
2022-08-02T14:55:48.520Z,28.60
2022-08-02T14:58:27.873Z,28.80
2022-08-02T15:01:09.575Z,28.80
2022-08-02T15:03:44.024Z,28.80
2022-08-02T15:06:17.143Z,29.00
2022-08-02T15:08:46.960Z,28.90
2022-08-02T15:11:17.493Z,29.00
2022-08-02T15:13:47.578Z,29.10
2022-08-02T15:16:17.998Z,29.20
2022-08-02T15:18:47.914Z,29.30
2022-08-02T15:21:41.554Z,29.30
2022-08-02T15:24:12.208Z,29.40
2022-08-02T15:26:42.627Z,29.50
2022-08-02T15:29:15.310Z,29.60
2022-08-02T15:31:46.799Z,29.60
2022-08-02T15:34:18.635Z,29.60
2022-08-02T15:36:49.563Z,29.70
2022-08-02T15:39:21.658Z,29.90
2022-08-02T15:41:53.741Z,29.90
2022-08-02T15:44:23.780Z,30.00
2022-08-02T15:46:56.521Z,30.00
2022-08-02T15:49:26.577Z,30.10
2022-08-02T15:51:57.876Z,30.10
2022-08-02T15:54:32.394Z,30.30
2022-08-02T15:57:03.443Z,30.40
2022-08-02T15:59:34.764Z,30.40
2022-08-02T16:02:07.768Z,30.50
2022-08-02T16:04:38.476Z,30.40
2022-08-02T16:07:08.802Z,30.60
2022-08-02T16:09:38.762Z,30.70
2022-08-02T16:12:10.789Z,30.70
2022-08-02T16:14:42.788Z,30.90
2022-08-02T16:17:13.118Z,30.70
2022-08-02T16:19:49.939Z,30.60
2022-08-02T16:22:34.278Z,30.70
2022-08-02T16:25:16.955Z,31.00
2022-08-02T16:28:05.939Z,30.90
2022-08-02T16:30:37.938Z,31.00
2022-08-02T16:33:10.190Z,31.10
2022-08-02T16:35:44.710Z,31.30
2022-08-02T16:38:17.660Z,31.40
2022-08-02T16:40:47.579Z,31.40
2022-08-02T16:43:17.955Z,31.40
2022-08-02T16:45:51.371Z,31.50
2022-08-02T16:48:22.406Z,31.60
2022-08-02T16:50:55.501Z,31.60
2022-08-02T16:53:36.256Z,31.60
2022-08-02T16:56:08.268Z,31.60
2022-08-02T16:58:38.748Z,31.60
2022-08-02T17:01:09.277Z,31.70
2022-08-02T17:03:56.002Z,31.70
2022-08-02T17:06:47.737Z,32.00
2022-08-02T17:10:02.459Z,32.00
2022-08-02T17:16:16.617Z,32.20
2022-08-02T17:18:49.206Z,32.50
2022-08-02T17:21:19.961Z,32.40
2022-08-02T17:24:04.929Z,32.50
2022-08-02T17:26:42.468Z,32.50
2022-08-02T17:29:15.685Z,32.50
2022-08-02T17:32:05.224Z,32.50
2022-08-02T17:34:39.255Z,32.50
2022-08-02T17:37:11.183Z,32.80
2022-08-02T17:42:32.390Z,32.80
2022-08-02T17:45:17.113Z,32.50
2022-08-02T17:48:04.883Z,33.00
2022-08-02T17:50:36.909Z,32.90
2022-08-02T17:53:06.866Z,32.90
2022-08-02T17:55:42.419Z,33.00
2022-08-02T17:58:17.175Z,33.00
2022-08-02T18:00:50.749Z,33.00
2022-08-02T18:03:23.762Z,33.10
2022-08-02T18:05:56.938Z,33.40
2022-08-02T18:08:29.895Z,33.30
2022-08-02T18:11:01.532Z,33.10
2022-08-02T18:13:35.752Z,33.40
2022-08-02T18:16:06.729Z,33.40
2022-08-02T18:18:55.814Z,33.50
2022-08-02T18:21:32.921Z,33.70
2022-08-02T18:24:03.018Z,33.60
2022-08-02T18:26:34.619Z,33.70
2022-08-02T18:29:21.178Z,33.80
2022-08-02T18:32:02.452Z,33.90
2022-08-02T18:34:33.729Z,33.80
2022-08-02T18:37:06.489Z,33.80
2022-08-02T18:39:38.440Z,34.00
2022-08-02T18:42:11.967Z,33.80
2022-08-02T18:44:48.538Z,33.60
2022-08-02T18:47:19.231Z,33.70
2022-08-02T18:49:54.308Z,33.90
2022-08-02T18:52:30.801Z,34.40
2022-08-02T18:55:17.028Z,34.30
2022-08-02T18:58:16.886Z,34.10
2022-08-02T19:00:38.328Z,34.30
2022-08-02T19:03:09.637Z,33.90
2022-08-02T19:05:52.114Z,34.20
2022-08-02T19:08:26.363Z,34.40
2022-08-02T19:10:57.428Z,34.20
2022-08-02T19:13:33.035Z,34.40
2022-08-02T19:16:05.865Z,34.50
2022-08-02T19:18:38.870Z,34.60
2022-08-02T19:21:09.967Z,34.70
2022-08-02T19:23:54.361Z,34.40
2022-08-02T19:26:25.898Z,34.30
2022-08-02T19:28:56.024Z,34.40
2022-08-02T19:31:34.587Z,34.60
2022-08-02T19:34:08.064Z,35.10
2022-08-02T19:36:40.354Z,35.00
2022-08-02T19:39:16.766Z,34.90
2022-08-02T19:41:50.850Z,35.00
2022-08-02T19:44:29.254Z,34.90
2022-08-02T19:46:59.539Z,34.80
2022-08-02T19:49:40.285Z,34.70
2022-08-02T19:52:21.035Z,35.00
2022-08-02T19:54:56.083Z,35.40
2022-08-02T19:57:27.555Z,35.30
2022-08-02T20:00:07.515Z,35.10
2022-08-02T20:02:46.666Z,35.10
2022-08-02T20:05:24.145Z,35.10
2022-08-02T20:08:35.665Z,35.40
2022-08-02T20:10:56.378Z,35.30
2022-08-02T20:13:34.651Z,35.80
2022-08-02T20:16:20.910Z,35.90
2022-08-02T20:19:03.175Z,35.70
2022-08-02T20:21:42.051Z,35.90
2022-08-02T20:24:15.760Z,35.80
2022-08-02T20:26:48.029Z,35.80
2022-08-02T20:29:44.781Z,35.90
2022-08-02T20:32:22.843Z,35.70
2022-08-02T20:34:54.964Z,35.70
2022-08-02T20:38:00.219Z,35.60
2022-08-02T20:40:18.599Z,35.80
2022-08-02T20:42:49.216Z,35.80
2022-08-02T20:45:23.107Z,35.70
2022-08-02T20:48:02.186Z,35.50
2022-08-02T20:50:53.233Z,35.20
2022-08-02T20:53:29.921Z,35.40
2022-08-02T20:56:00.646Z,35.60
2022-08-02T20:58:31.283Z,36.00
2022-08-02T21:01:03.253Z,35.90
2022-08-02T21:03:40.016Z,35.90
2022-08-02T21:06:14.940Z,35.90
2022-08-02T21:08:47.387Z,36.00
2022-08-02T21:11:17.917Z,35.90
2022-08-02T21:16:44.203Z,36.10
2022-08-02T21:19:17.041Z,36.00
2022-08-02T21:21:46.714Z,36.00
2022-08-02T21:24:24.522Z,36.20
2022-08-02T21:26:54.272Z,36.10
2022-08-02T21:29:25.453Z,36.30
2022-08-02T21:32:05.103Z,36.50
2022-08-02T21:34:35.465Z,36.30
2022-08-02T21:37:10.089Z,36.30
2022-08-02T21:39:39.911Z,36.40
2022-08-02T21:42:12.944Z,36.70
2022-08-02T21:44:52.948Z,36.60
2022-08-02T21:47:25.936Z,36.70
2022-08-02T21:50:13.665Z,36.60
2022-08-02T21:52:52.469Z,36.50
2022-08-02T21:56:00.116Z,36.50
2022-08-02T21:58:25.232Z,36.50
2022-08-02T22:00:57.118Z,36.20
2022-08-02T22:03:26.681Z,36.40
2022-08-02T22:05:59.489Z,36.70
2022-08-02T22:08:28.936Z,36.70
2022-08-02T22:11:03.199Z,36.60
2022-08-02T22:13:38.925Z,36.60
2022-08-02T22:16:25.824Z,36.70
2022-08-02T22:18:56.715Z,36.70
2022-08-02T22:21:46.541Z,36.70
2022-08-02T22:24:19.429Z,36.70
2022-08-02T22:27:00.044Z,36.70
2022-08-02T22:29:32.351Z,36.90
2022-08-02T22:32:04.843Z,36.70
2022-08-02T22:38:17.367Z,36.80
2022-08-02T22:40:15.196Z,36.60
2022-08-02T22:42:47.619Z,36.50
2022-08-02T22:45:17.248Z,36.50
2022-08-02T22:47:51.070Z,36.40
2022-08-02T22:50:22.131Z,36.40
2022-08-02T22:52:51.870Z,36.40
2022-08-02T22:55:24.755Z,36.40
2022-08-02T22:58:06.155Z,36.30
2022-08-02T22:58:48.666Z,32.70
2022-08-02T22:59:02.194Z,35.80
2022-08-02T22:59:09.519Z,36.50
2022-08-02T23:00:35.927Z,36.20
2022-08-02T23:03:08.288Z,36.30
2022-08-02T23:05:40.338Z,36.40
2022-08-02T23:08:09.687Z,36.20
2022-08-02T23:10:41.287Z,36.20
2022-08-02T23:13:11.288Z,36.30
2022-08-02T23:16:01.238Z,36.10
2022-08-02T23:18:52.975Z,36.20
2022-08-02T23:21:45.892Z,36.20
2022-08-02T23:24:19.549Z,36.10
2022-08-02T23:26:50.023Z,36.20
2022-08-02T23:29:21.515Z,36.10
2022-08-02T23:31:51.680Z,36.00
2022-08-02T23:34:22.922Z,36.00
2022-08-02T23:36:58.889Z,36.00
2022-08-02T23:39:30.160Z,36.00
2022-08-02T23:42:01.251Z,35.90
2022-08-02T23:44:32.886Z,35.90
2022-08-02T23:47:05.793Z,36.00
2022-08-02T23:49:35.425Z,35.90
2022-08-02T23:52:06.943Z,35.90
2022-08-02T23:54:36.257Z,35.90
2022-08-02T23:57:20.904Z,35.90
2022-08-02T23:59:54.468Z,35.90
